Time;durP1;ratioP1;P1;durP2;ratioP2;P2;SDS_P1;SDS_P2;PMS_P1;PMS_P2;Temp;Humidity;BMP_temperature;BMP_pressure;BME280_temperature;BME280_humidity;BME280_pressure;Samples;Min_cycle;Max_cycle;Signal;HPM_P1;HPM_P2
2023/10/17 00:01:16;;;;;;;5.70;3.80;;;;;;;;;;4938835;29;20180;-78
2023/10/17 00:03:41;;;;;;;4.47;3.83;;;;;;;;;;4935324;28;20191;-78
2023/10/17 00:06:06;;;;;;;3.63;3.33;;;;;;;;;;4949788;28;20439;-78
2023/10/17 00:08:35;;;;;;;4.27;3.57;;;;;;;;;;4938204;28;20227;-78
2023/10/17 00:11:06;;;;;;;4.77;4.27;;;;;;;;;;4966244;28;20191;-78
2023/10/17 00:13:38;;;;;;;3.60;3.30;;;;;;;;;;4953296;28;20236;-79
2023/10/17 00:16:08;;;;;;;4.43;3.90;;;;;;;;;;4941412;28;20222;-78
2023/10/17 00:18:33;;;;;;;4.33;3.93;;;;;;;;;;4947223;28;20249;-78
2023/10/17 00:21:10;;;;;;;6.03;4.20;;;;;;;;;;4969202;28;20259;-78
2023/10/17 00:23:35;;;;;;;4.90;4.40;;;;;;;;;;4963457;28;20180;-78
2023/10/17 00:26:03;;;;;;;5.33;4.10;;;;;;;;;;4951272;29;20192;-78
2023/10/17 00:28:28;;;;;;;4.83;4.20;;;;;;;;;;4968612;28;20183;-78
2023/10/17 00:30:54;;;;;;;5.87;4.70;;;;;;;;;;4941625;28;20208;-78
2023/10/17 00:33:20;;;;;;;5.80;4.80;;;;;;;;;;4939781;28;20208;-79
2023/10/17 00:35:49;;;;;;;5.53;4.63;;;;;;;;;;4958463;28;20178;-78
2023/10/17 00:38:15;;;;;;;6.27;4.67;;;;;;;;;;4946471;28;20187;-78
2023/10/17 00:40:51;;;;;;;5.57;4.87;;;;;;;;;;4959302;28;20245;-78
2023/10/17 00:43:17;;;;;;;5.60;4.93;;;;;;;;;;4943854;28;20192;-78
2023/10/17 00:45:45;;;;;;;5.73;5.03;;;;;;;;;;4943438;28;20180;-78
2023/10/17 00:48:18;;;;;;;7.83;5.87;;;;;;;;;;4942410;28;20186;-78
2023/10/17 00:50:48;;;;;;;5.80;4.77;;;;;;;;;;4954894;28;20180;-78
2023/10/17 00:53:14;;;;;;;7.33;4.80;;;;;;;;;;4953448;28;20198;-79
2023/10/17 00:55:46;;;;;;;5.07;4.43;;;;;;;;;;4972227;28;20187;-78
2023/10/17 00:58:12;;;;;;;5.53;4.87;;;;;;;;;;4937812;28;20207;-78
2023/10/17 01:00:37;;;;;;;7.17;5.47;;;;;;;;;;4947788;28;20232;-78
2023/10/17 01:03:10;;;;;;;4.73;4.23;;;;;;;;;;4953870;28;20245;-78
2023/10/17 01:05:43;;;;;;;5.63;5.03;;;;;;;;;;4939609;28;20186;-78
2023/10/17 01:08:08;;;;;;;7.10;5.80;;;;;;;;;;4956212;28;20245;-78
2023/10/17 01:10:35;;;;;;;6.53;5.20;;;;;;;;;;4960160;28;20187;-79
2023/10/17 01:13:02;;;;;;;6.80;5.73;;;;;;;;;;4954466;28;20299;-77
2023/10/17 01:15:28;;;;;;;8.40;5.70;;;;;;;;;;4941020;29;20273;-78
2023/10/17 01:18:04;;;;;;;8.23;6.53;;;;;;;;;;4956133;28;20275;-78
2023/10/17 01:20:29;;;;;;;8.73;5.70;;;;;;;;;;4935290;29;20180;-78
2023/10/17 01:22:56;;;;;;;8.93;6.73;;;;;;;;;;4947019;28;20176;-78
2023/10/17 01:25:25;;;;;;;7.70;6.23;;;;;;;;;;4941553;29;20232;-79
2023/10/17 01:27:51;;;;;;;8.30;6.40;;;;;;;;;;4941658;28;20202;-78
2023/10/17 01:30:16;;;;;;;8.47;6.73;;;;;;;;;;4953725;28;20178;-78
2023/10/17 01:32:41;;;;;;;6.73;6.03;;;;;;;;;;4962927;28;20226;-78
2023/10/17 01:35:07;;;;;;;7.73;6.43;;;;;;;;;;4951123;28;20188;-79
2023/10/17 01:37:32;;;;;;;9.00;6.93;;;;;;;;;;4935667;28;20181;-78
2023/10/17 01:39:58;;;;;;;8.40;6.67;;;;;;;;;;4934903;28;20171;-78
2023/10/17 01:42:23;;;;;;;8.77;6.57;;;;;;;;;;4943965;28;20231;-78
2023/10/17 01:44:50;;;;;;;7.47;5.87;;;;;;;;;;4938712;28;20234;-78
2023/10/17 01:47:18;;;;;;;7.03;6.17;;;;;;;;;;4941688;28;20184;-78
2023/10/17 01:49:43;;;;;;;8.07;6.40;;;;;;;;;;4953133;28;20233;-78
2023/10/17 01:52:11;;;;;;;7.30;6.27;;;;;;;;;;4935344;29;20184;-78
2023/10/17 01:54:36;;;;;;;7.83;6.50;;;;;;;;;;4935102;28;20222;-78
2023/10/17 01:57:06;;;;;;;7.60;5.77;;;;;;;;;;4940936;28;20201;-78
2023/10/17 01:59:34;;;;;;;6.97;6.07;;;;;;;;;;4949535;28;20175;-78
2023/10/17 02:02:00;;;;;;;7.33;6.40;;;;;;;;;;4958276;28;20167;-78
2023/10/17 02:04:25;;;;;;;9.20;6.90;;;;;;;;;;4937695;28;20216;-78
2023/10/17 02:06:51;;;;;;;8.57;6.50;;;;;;;;;;4937942;28;20290;-78
2023/10/17 02:11:54;;;;;;;6.60;5.67;;;;;;;;;;4955006;28;20185;-78
2023/10/17 02:14:23;;;;;;;8.30;6.90;;;;;;;;;;4962726;28;20196;-78
2023/10/17 02:16:51;;;;;;;8.53;7.20;;;;;;;;;;4937583;28;20179;-77
2023/10/17 02:19:17;;;;;;;10.13;7.20;;;;;;;;;;4938007;28;20174;-78
2023/10/17 02:21:43;;;;;;;8.10;6.47;;;;;;;;;;4939933;28;20170;-78
2023/10/17 02:24:09;;;;;;;9.10;7.97;;;;;;;;;;4957734;28;20185;-78
2023/10/17 02:26:54;;;;;;;9.47;6.77;;;;;;;;;;4942571;28;20220;-78
2023/10/17 02:29:23;;;;;;;8.57;6.67;;;;;;;;;;4939822;29;20185;-77
2023/10/17 02:31:52;;;;;;;8.23;6.80;;;;;;;;;;4954609;28;20230;-78
2023/10/17 02:34:22;;;;;;;9.17;7.17;;;;;;;;;;4941036;28;20230;-77
2023/10/17 02:36:52;;;;;;;8.07;6.87;;;;;;;;;;4948645;28;20210;-78
2023/10/17 02:39:20;;;;;;;11.10;6.70;;;;;;;;;;4946180;28;20237;-78
2023/10/17 02:41:46;;;;;;;11.33;7.20;;;;;;;;;;4964598;28;20204;-78
2023/10/17 02:44:14;;;;;;;8.73;6.57;;;;;;;;;;4941169;28;20191;-78
2023/10/17 02:46:41;;;;;;;8.20;6.30;;;;;;;;;;4948376;28;20195;-78
2023/10/17 02:49:07;;;;;;;7.43;6.30;;;;;;;;;;4939389;28;20190;-78
2023/10/17 02:51:33;;;;;;;8.57;6.90;;;;;;;;;;4943368;28;20240;-79
2023/10/17 02:53:59;;;;;;;8.30;6.27;;;;;;;;;;4940988;28;20201;-78
2023/10/17 02:56:25;;;;;;;11.00;7.00;;;;;;;;;;4938126;28;20184;-78
2023/10/17 02:59:13;;;;;;;8.43;6.53;;;;;;;;;;4949300;28;20275;-78
2023/10/17 03:01:38;;;;;;;9.10;7.43;;;;;;;;;;4953942;28;20314;-78
2023/10/17 03:04:10;;;;;;;7.37;6.50;;;;;;;;;;4936013;28;20214;-78
2023/10/17 03:06:39;;;;;;;8.07;6.33;;;;;;;;;;4950884;28;20184;-78
2023/10/17 03:12:07;;;;;;;10.10;7.13;;;;;;;;;;4948064;28;20194;-78
2023/10/17 03:17:10;;;;;;;7.70;6.03;;;;;;;;;;4950526;28;20172;-78
2023/10/17 03:19:36;;;;;;;7.40;6.33;;;;;;;;;;4937415;28;20395;-78
2023/10/17 03:22:24;;;;;;;9.97;6.97;;;;;;;;;;4934114;28;20180;-78
2023/10/17 03:24:51;;;;;;;8.53;6.53;;;;;;;;;;4938923;28;20214;-78
2023/10/17 03:27:36;;;;;;;9.90;7.10;;;;;;;;;;4947884;28;20243;-78
2023/10/17 03:30:06;;;;;;;8.13;6.60;;;;;;;;;;4958613;28;20204;-78
2023/10/17 03:32:33;;;;;;;10.83;7.03;;;;;;;;;;4935205;29;20181;-78
2023/10/17 03:34:58;;;;;;;8.23;6.43;;;;;;;;;;4937515;28;20870;-78
2023/10/17 03:39:55;;;;;;;8.17;6.83;;;;;;;;;;4948694;28;20215;-78
2023/10/17 03:45:24;;;;;;;9.03;6.63;;;;;;;;;;4953877;28;20210;-78
2023/10/17 03:47:53;;;;;;;10.27;7.70;;;;;;;;;;4955795;28;20214;-78
2023/10/17 03:50:31;;;;;;;9.50;7.73;;;;;;;;;;4940721;29;20177;-78
2023/10/17 03:53:24;;;;;;;9.37;7.47;;;;;;;;;;4933415;28;20230;-78
2023/10/17 03:55:50;;;;;;;9.70;6.90;;;;;;;;;;4950572;28;20172;-78
2023/10/17 04:00:50;;;;;;;11.07;8.67;;;;;;;;;;4950961;28;20222;-77
2023/10/17 04:03:21;;;;;;;17.90;8.63;;;;;;;;;;4955420;28;20204;-78
2023/10/17 04:05:51;;;;;;;10.40;8.37;;;;;;;;;;4934951;29;20188;-78
2023/10/17 04:08:26;;;;;;;10.97;8.47;;;;;;;;;;4930272;29;20289;-78
2023/10/17 04:10:54;;;;;;;11.33;8.03;;;;;;;;;;4934533;28;20231;-77
2023/10/17 04:13:34;;;;;;;11.63;8.13;;;;;;;;;;4933647;28;20206;-78
2023/10/17 04:15:59;;;;;;;11.63;8.63;;;;;;;;;;4936505;28;20209;-77
2023/10/17 04:18:24;;;;;;;13.70;9.40;;;;;;;;;;4938512;28;20215;-78
2023/10/17 04:20:53;;;;;;;13.93;9.03;;;;;;;;;;4944328;28;20181;-78
2023/10/17 04:23:22;;;;;;;12.10;9.40;;;;;;;;;;4958840;28;20269;-77
2023/10/17 04:25:54;;;;;;;12.60;8.90;;;;;;;;;;4949650;28;20443;-78
2023/10/17 04:28:20;;;;;;;12.37;9.17;;;;;;;;;;4952307;28;20184;-78
2023/10/17 04:30:48;;;;;;;12.07;9.40;;;;;;;;;;4933552;28;20192;-78
2023/10/17 04:33:13;;;;;;;12.27;8.90;;;;;;;;;;4933059;29;20230;-77
2023/10/17 04:35:46;;;;;;;13.03;8.80;;;;;;;;;;4934769;28;20254;-78
2023/10/17 04:38:19;;;;;;;13.87;10.90;;;;;;;;;;4936219;28;20293;-78
2023/10/17 04:43:54;;;;;;;12.73;9.40;;;;;;;;;;4956694;28;20208;-77
2023/10/17 04:46:25;;;;;;;14.00;10.40;;;;;;;;;;4945103;28;20326;-77
2023/10/17 04:48:52;;;;;;;13.60;10.27;;;;;;;;;;4939062;28;20200;-77
2023/10/17 04:53:48;;;;;;;17.33;12.13;;;;;;;;;;4952373;28;20205;-78
2023/10/17 04:56:16;;;;;;;13.97;10.80;;;;;;;;;;4939186;29;20182;-78
2023/10/17 04:58:53;;;;;;;14.03;11.33;;;;;;;;;;4940277;28;20178;-78
2023/10/17 05:02:14;;;;;;;18.70;11.73;;;;;;;;;;4951959;28;20238;-74
2023/10/17 05:04:21;;;;;;;15.37;11.60;;;;;;;;;;4956752;28;20194;-78
2023/10/17 05:07:07;;;;;;;14.90;11.40;;;;;;;;;;4952924;28;20203;-77
2023/10/17 06:17:48;;;;;;;19.33;10.63;;;;;;;;;;4954370;28;20291;-79
2023/10/17 06:20:14;;;;;;;14.00;10.00;;;;;;;;;;4955172;28;20181;-79
2023/10/17 06:28:20;;;;;;;14.43;10.47;;;;;;;;;;4961987;28;20256;-78
2023/10/17 06:30:48;;;;;;;18.03;11.70;;;;;;;;;;4940669;28;20278;-79
2023/10/17 06:33:19;;;;;;;18.07;11.23;;;;;;;;;;4946117;28;20282;-79
2023/10/17 06:35:55;;;;;;;17.13;10.40;;;;;;;;;;4938744;29;20184;-79
2023/10/17 06:38:27;;;;;;;14.83;10.80;;;;;;;;;;4920565;29;20185;-79
2023/10/17 06:40:53;;;;;;;15.70;10.80;;;;;;;;;;4953599;28;20181;-79
2023/10/17 06:43:27;;;;;;;16.47;11.07;;;;;;;;;;4948333;28;20488;-79
2023/10/17 06:45:57;;;;;;;15.30;9.97;;;;;;;;;;4942310;28;20178;-79
2023/10/17 06:48:31;;;;;;;17.10;12.00;;;;;;;;;;4956876;28;20184;-78
2023/10/17 06:51:29;;;;;;;17.30;11.60;;;;;;;;;;4959270;28;20187;-78
2023/10/17 06:53:56;;;;;;;15.57;11.20;;;;;;;;;;4938711;28;20376;-79
2023/10/17 06:56:25;;;;;;;15.33;11.23;;;;;;;;;;4938834;28;20817;-79
2023/10/17 06:58:50;;;;;;;16.60;11.10;;;;;;;;;;4944215;28;20214;-79
2023/10/17 07:01:19;;;;;;;25.00;13.10;;;;;;;;;;4937073;28;20225;-79
2023/10/17 07:03:45;;;;;;;16.63;12.90;;;;;;;;;;4941930;28;20219;-79
2023/10/17 07:06:13;;;;;;;15.43;11.07;;;;;;;;;;4935497;28;20264;-79
2023/10/17 07:08:40;;;;;;;13.77;9.47;;;;;;;;;;4935715;29;20247;-78
2023/10/17 07:11:09;;;;;;;14.73;10.80;;;;;;;;;;4938260;28;20198;-79
2023/10/17 07:13:50;;;;;;;14.20;11.00;;;;;;;;;;4938263;28;20264;-78
2023/10/17 07:16:25;;;;;;;15.47;11.23;;;;;;;;;;4955123;28;20347;-78
2023/10/17 07:18:53;;;;;;;15.43;11.70;;;;;;;;;;4952668;28;20183;-79
2023/10/17 07:21:25;;;;;;;16.40;11.83;;;;;;;;;;4945241;28;20183;-79
2023/10/17 07:23:54;;;;;;;16.13;11.27;;;;;;;;;;4935298;28;20193;-78
2023/10/17 07:28:55;;;;;;;18.73;11.87;;;;;;;;;;4958779;28;20249;-78
2023/10/17 07:31:23;;;;;;;13.57;10.17;;;;;;;;;;4934687;28;20185;-79
2023/10/17 07:36:34;;;;;;;15.73;11.80;;;;;;;;;;4952328;28;20191;-79
2023/10/17 07:38:59;;;;;;;14.37;11.07;;;;;;;;;;4941111;28;20192;-80
2023/10/17 07:41:36;;;;;;;17.30;12.70;;;;;;;;;;4932224;28;20310;-79
2023/10/17 07:44:21;;;;;;;16.47;12.63;;;;;;;;;;4938509;28;20194;-78
2023/10/17 07:46:48;;;;;;;18.87;11.47;;;;;;;;;;4955601;28;20255;-79
2023/10/17 07:49:14;;;;;;;15.73;11.43;;;;;;;;;;4947292;28;20216;-78
2023/10/17 07:51:42;;;;;;;14.80;11.27;;;;;;;;;;4935681;28;20188;-79
2023/10/17 07:54:07;;;;;;;18.37;12.17;;;;;;;;;;4940569;28;20212;-79
2023/10/17 07:56:33;;;;;;;15.10;10.90;;;;;;;;;;4938078;28;20211;-79
2023/10/17 07:59:15;;;;;;;15.57;11.70;;;;;;;;;;4936574;28;20195;-78
2023/10/17 08:01:45;;;;;;;13.93;11.20;;;;;;;;;;4930863;29;20181;-79
2023/10/17 08:04:17;;;;;;;12.97;10.80;;;;;;;;;;4954395;28;20189;-79
2023/10/17 08:06:43;;;;;;;14.77;11.03;;;;;;;;;;4942186;28;20238;-79
2023/10/17 08:11:50;;;;;;;16.97;12.93;;;;;;;;;;4953948;28;20890;-79
2023/10/17 08:14:17;;;;;;;16.77;12.50;;;;;;;;;;4936657;28;20227;-79
2023/10/17 08:16:42;;;;;;;25.90;23.40;;;;;;;;;;4954050;28;21738;-79
2023/10/17 08:19:21;;;;;;;12.50;9.83;;;;;;;;;;4933078;28;20184;-80
2023/10/17 08:29:49;;;;;;;13.87;10.33;;;;;;;;;;4955198;28;20173;-79
2023/10/17 08:34:50;;;;;;;14.13;10.50;;;;;;;;;;4955363;28;20288;-79
2023/10/17 08:37:26;;;;;;;11.33;9.17;;;;;;;;;;4938752;29;20270;-78
2023/10/17 08:39:51;;;;;;;13.30;10.53;;;;;;;;;;4949325;28;20400;-79
2023/10/17 08:44:54;;;;;;;12.17;9.80;;;;;;;;;;4954402;28;20185;-79
2023/10/17 08:47:24;;;;;;;11.67;9.47;;;;;;;;;;4937419;28;20211;-79
2023/10/17 08:49:50;;;;;;;9.97;8.83;;;;;;;;;;4938575;29;20225;-79
2023/10/17 08:52:23;;;;;;;19.37;10.20;;;;;;;;;;4942784;28;20222;-78
2023/10/17 08:54:48;;;;;;;11.13;9.37;;;;;;;;;;4943569;28;20236;-79
2023/10/17 08:57:14;;;;;;;11.83;8.80;;;;;;;;;;4944118;28;20216;-78
2023/10/17 09:04:51;;;;;;;9.97;8.10;;;;;;;;;;4951654;28;20197;-79
2023/10/17 09:07:31;;;;;;;14.00;9.37;;;;;;;;;;4957039;28;20204;-79
2023/10/17 09:10:02;;;;;;;28.87;9.93;;;;;;;;;;4935136;28;20299;-78
2023/10/17 09:12:28;;;;;;;11.43;8.87;;;;;;;;;;4962560;28;20177;-78
2023/10/17 09:14:56;;;;;;;11.20;8.73;;;;;;;;;;4942849;28;20205;-79
2023/10/17 09:19:53;;;;;;;13.87;9.40;;;;;;;;;;4954621;28;20178;-79
2023/10/17 09:22:36;;;;;;;9.03;7.40;;;;;;;;;;4936583;28;20268;-79
2023/10/17 09:25:12;;;;;;;9.90;8.27;;;;;;;;;;4952588;28;20260;-79
2023/10/17 09:27:38;;;;;;;10.27;8.40;;;;;;;;;;4937619;29;20181;-79
2023/10/17 09:30:10;;;;;;;9.53;8.00;;;;;;;;;;4951026;28;20174;-79
2023/10/17 09:32:36;;;;;;;11.20;9.10;;;;;;;;;;4940680;28;20174;-79
2023/10/17 09:35:10;;;;;;;18.30;11.77;;;;;;;;;;4938242;28;20211;-79
2023/10/17 09:37:37;;;;;;;10.80;8.27;;;;;;;;;;4955187;28;20169;-78
2023/10/17 09:40:11;;;;;;;19.53;8.53;;;;;;;;;;4936724;28;20182;-79
2023/10/17 09:42:37;;;;;;;10.03;8.20;;;;;;;;;;4962599;28;20247;-79
2023/10/17 09:45:03;;;;;;;12.63;9.10;;;;;;;;;;4954747;28;20238;-79
2023/10/17 09:47:29;;;;;;;11.23;8.97;;;;;;;;;;4942307;28;20230;-78
2023/10/17 09:49:55;;;;;;;114.20;21.97;;;;;;;;;;4945820;28;20256;-79
2023/10/17 09:52:24;;;;;;;14.43;10.87;;;;;;;;;;4947189;28;20281;-71
2023/10/17 09:54:51;;;;;;;10.93;7.90;;;;;;;;;;4948709;28;20240;-71
2023/10/17 09:57:18;;;;;;;10.47;8.10;;;;;;;;;;4952978;28;20249;-71
2023/10/17 10:00:05;;;;;;;9.00;7.20;;;;;;;;;;4953290;28;20186;-71
2023/10/17 10:02:34;;;;;;;9.27;6.77;;;;;;;;;;4950201;28;20178;-71
2023/10/17 10:05:18;;;;;;;8.57;6.63;;;;;;;;;;4952585;28;20186;-71
2023/10/17 10:07:43;;;;;;;7.90;7.03;;;;;;;;;;4953327;28;20209;-69
2023/10/17 10:10:10;;;;;;;7.97;7.17;;;;;;;;;;4953829;28;20193;-73
2023/10/17 10:12:55;;;;;;;21.83;7.40;;;;;;;;;;4955525;28;20262;-71
2023/10/17 10:15:39;;;;;;;8.93;6.40;;;;;;;;;;4922409;29;20198;-71
2023/10/17 10:18:05;;;;;;;7.50;6.70;;;;;;;;;;4958264;28;20192;-72
2023/10/17 10:20:50;;;;;;;8.07;7.27;;;;;;;;;;4951342;28;20186;-71
2023/10/17 10:23:16;;;;;;;12.83;9.63;;;;;;;;;;4959143;28;20281;-71
2023/10/17 10:26:01;;;;;;;7.20;6.07;;;;;;;;;;4938088;28;20183;-70
2023/10/17 10:28:31;;;;;;;7.93;6.87;;;;;;;;;;4948820;28;20178;-71
2023/10/17 10:30:56;;;;;;;7.97;6.93;;;;;;;;;;4949636;28;20178;-71
2023/10/17 10:33:22;;;;;;;8.27;7.13;;;;;;;;;;4950055;28;20203;-72
2023/10/17 10:35:48;;;;;;;8.97;6.43;;;;;;;;;;4950208;28;20195;-71
2023/10/17 10:38:13;;;;;;;7.87;5.93;;;;;;;;;;4953293;28;20271;-71
2023/10/17 10:40:40;;;;;;;6.63;5.07;;;;;;;;;;4952965;28;20179;-71
2023/10/17 10:43:06;;;;;;;7.83;6.60;;;;;;;;;;4934985;28;20183;-72
2023/10/17 10:45:35;;;;;;;8.57;7.10;;;;;;;;;;4950473;28;20210;-71
2023/10/17 10:48:01;;;;;;;7.83;6.33;;;;;;;;;;4952336;28;20184;-72
2023/10/17 10:50:30;;;;;;;8.50;6.67;;;;;;;;;;4954756;28;20261;-71
2023/10/17 10:52:56;;;;;;;9.47;7.57;;;;;;;;;;4952571;28;20192;-71
2023/10/17 10:55:23;;;;;;;7.10;5.97;;;;;;;;;;4946077;28;20224;-71
2023/10/17 10:57:48;;;;;;;9.60;8.53;;;;;;;;;;4948702;28;20192;-72
2023/10/17 11:00:15;;;;;;;10.57;7.67;;;;;;;;;;4953260;28;20241;-71
2023/10/17 11:02:42;;;;;;;7.20;6.50;;;;;;;;;;4958252;28;20240;-71
2023/10/17 11:05:10;;;;;;;8.70;6.63;;;;;;;;;;4957550;28;20191;-71
2023/10/17 11:07:36;;;;;;;9.40;7.83;;;;;;;;;;4955289;28;20256;-71
2023/10/17 11:10:06;;;;;;;8.50;7.23;;;;;;;;;;4951322;28;20272;-71
2023/10/17 11:12:32;;;;;;;8.13;7.33;;;;;;;;;;4952606;28;20187;-71
2023/10/17 11:15:16;;;;;;;9.00;7.10;;;;;;;;;;4941074;28;20259;-72
2023/10/17 11:17:45;;;;;;;7.83;7.03;;;;;;;;;;4951383;28;20192;-71
2023/10/17 11:20:20;;;;;;;8.43;6.37;;;;;;;;;;4946265;28;20189;-71
2023/10/17 11:22:46;;;;;;;6.97;6.37;;;;;;;;;;4934756;28;20424;-72
2023/10/17 11:25:13;;;;;;;9.50;7.03;;;;;;;;;;4953282;28;20507;-71
2023/10/17 11:27:54;;;;;;;8.63;7.73;;;;;;;;;;4958350;28;20177;-71
2023/10/17 11:30:20;;;;;;;7.33;6.53;;;;;;;;;;4933637;28;20184;-71
2023/10/17 11:32:46;;;;;;;8.77;6.90;;;;;;;;;;4934082;28;20213;-72
2023/10/17 11:35:19;;;;;;;8.33;7.27;;;;;;;;;;4950935;28;20184;-71
2023/10/17 11:37:46;;;;;;;7.23;6.20;;;;;;;;;;4949493;28;20181;-71
2023/10/17 11:40:29;;;;;;;6.60;5.60;;;;;;;;;;4955450;28;20185;-71
2023/10/17 11:42:54;;;;;;;8.60;7.00;;;;;;;;;;4948629;28;20168;-71
2023/10/17 11:45:25;;;;;;;7.30;5.57;;;;;;;;;;4946763;28;20187;-71
2023/10/17 11:47:50;;;;;;;8.60;5.70;;;;;;;;;;4946295;28;20262;-71
2023/10/17 11:50:30;;;;;;;7.17;5.70;;;;;;;;;;4946162;28;20181;-71
2023/10/17 11:52:58;;;;;;;7.43;6.63;;;;;;;;;;4946426;28;20199;-72
2023/10/17 11:55:24;;;;;;;6.90;5.50;;;;;;;;;;4950594;28;20244;-71
2023/10/17 11:57:50;;;;;;;7.20;5.93;;;;;;;;;;4949905;28;20191;-71
2023/10/17 12:02:43;;;;;;;9.40;6.00;;;;;;;;;;4949889;28;20269;-71
2023/10/17 12:05:18;;;;;;;6.93;6.23;;;;;;;;;;4956817;28;20296;-71
2023/10/17 12:07:53;;;;;;;8.63;7.03;;;;;;;;;;4952556;28;20197;-71
2023/10/17 12:10:19;;;;;;;10.03;6.97;;;;;;;;;;4953524;28;20252;-72
2023/10/17 12:12:45;;;;;;;9.07;7.60;;;;;;;;;;4938521;29;20186;-71
2023/10/17 12:15:13;;;;;;;9.97;7.30;;;;;;;;;;4956572;28;20184;-71
2023/10/17 12:17:40;;;;;;;8.13;7.30;;;;;;;;;;4959685;28;20172;-71
2023/10/17 12:20:10;;;;;;;8.93;8.03;;;;;;;;;;4933741;28;20192;-72
2023/10/17 12:22:35;;;;;;;17.80;12.47;;;;;;;;;;4960026;28;20449;-72
2023/10/17 12:25:01;;;;;;;10.73;8.07;;;;;;;;;;4951398;28;20182;-71
2023/10/17 12:27:26;;;;;;;19.07;13.20;;;;;;;;;;4953541;28;20179;-71
2023/10/17 12:29:51;;;;;;;10.40;8.30;;;;;;;;;;4953950;28;20185;-71
2023/10/17 12:32:17;;;;;;;9.70;7.37;;;;;;;;;;4938345;28;20197;-71
2023/10/17 12:34:42;;;;;;;9.50;7.90;;;;;;;;;;4936032;29;20202;-71
2023/10/17 12:37:11;;;;;;;9.43;8.17;;;;;;;;;;4952126;28;20178;-71
2023/10/17 12:39:37;;;;;;;9.73;7.47;;;;;;;;;;4947865;28;20200;-71
2023/10/17 12:42:02;;;;;;;7.57;6.87;;;;;;;;;;4933200;28;20186;-72
2023/10/17 12:44:28;;;;;;;8.30;7.23;;;;;;;;;;4960482;28;20186;-71
2023/10/17 12:46:53;;;;;;;9.97;7.30;;;;;;;;;;4954591;28;20178;-71
2023/10/17 12:49:19;;;;;;;7.67;6.87;;;;;;;;;;4935950;28;20178;-71
2023/10/17 12:51:47;;;;;;;8.90;7.30;;;;;;;;;;4952191;28;20197;-72
2023/10/17 12:54:12;;;;;;;8.30;6.53;;;;;;;;;;4948906;28;20203;-71
2023/10/17 12:56:37;;;;;;;7.43;6.60;;;;;;;;;;4935658;28;20251;-71
2023/10/17 12:59:03;;;;;;;12.33;6.73;;;;;;;;;;4951407;28;20249;-71
2023/10/17 13:01:29;;;;;;;6.73;6.03;;;;;;;;;;4954615;28;20198;-71
2023/10/17 13:03:57;;;;;;;8.43;6.73;;;;;;;;;;4956250;28;20213;-71
2023/10/17 13:06:24;;;;;;;6.83;6.13;;;;;;;;;;4956103;28;20194;-72
2023/10/17 13:08:56;;;;;;;9.30;6.50;;;;;;;;;;4934074;28;20300;-71
2023/10/17 13:11:21;;;;;;;7.70;6.53;;;;;;;;;;4955363;28;20960;-71
2023/10/17 13:13:47;;;;;;;7.27;6.30;;;;;;;;;;4948017;28;20211;-72
2023/10/17 13:16:13;;;;;;;6.53;5.83;;;;;;;;;;4940449;28;20183;-71
2023/10/17 13:18:40;;;;;;;11.53;6.63;;;;;;;;;;4959456;28;20217;-71
2023/10/17 13:21:15;;;;;;;8.47;6.13;;;;;;;;;;4937054;29;20202;-71
2023/10/17 13:23:40;;;;;;;9.80;7.33;;;;;;;;;;4953037;28;20441;-71
2023/10/17 13:26:12;;;;;;;8.73;6.10;;;;;;;;;;4937929;28;20281;-71
2023/10/17 13:28:38;;;;;;;8.37;6.27;;;;;;;;;;4957599;28;20182;-71
2023/10/17 13:31:10;;;;;;;9.27;6.57;;;;;;;;;;4961085;28;20245;-72
2023/10/17 13:33:36;;;;;;;7.70;6.13;;;;;;;;;;4958187;28;20210;-71
2023/10/17 13:36:01;;;;;;;7.80;7.00;;;;;;;;;;4963419;28;20273;-72
2023/10/17 13:38:26;;;;;;;7.57;6.17;;;;;;;;;;4963473;28;20209;-71
2023/10/17 13:40:51;;;;;;;10.20;7.07;;;;;;;;;;4957630;28;20286;-71
2023/10/17 13:43:17;;;;;;;13.30;6.10;;;;;;;;;;4961946;28;20205;-71
2023/10/17 13:45:43;;;;;;;10.67;6.47;;;;;;;;;;4955872;28;20179;-71
2023/10/17 13:48:09;;;;;;;5.87;5.23;;;;;;;;;;4957938;28;20222;-71
2023/10/17 13:50:34;;;;;;;5.83;5.10;;;;;;;;;;4940843;28;20188;-72
2023/10/17 13:53:06;;;;;;;6.57;4.53;;;;;;;;;;4953595;28;20199;-72
2023/10/17 13:55:42;;;;;;;7.53;6.17;;;;;;;;;;4952762;28;20184;-71
2023/10/17 13:58:07;;;;;;;7.70;5.80;;;;;;;;;;4955650;28;20238;-71
2023/10/17 14:00:50;;;;;;;5.70;4.80;;;;;;;;;;4938314;28;20205;-71
2023/10/17 14:03:17;;;;;;;5.60;5.03;;;;;;;;;;4954952;28;20177;-71
2023/10/17 14:05:47;;;;;;;6.93;4.73;;;;;;;;;;4953305;28;20236;-72
2023/10/17 14:08:13;;;;;;;5.90;4.80;;;;;;;;;;4961208;28;20231;-71
2023/10/17 14:10:39;;;;;;;5.90;4.87;;;;;;;;;;4939656;29;20206;-72
2023/10/17 14:13:08;;;;;;;8.40;4.40;;;;;;;;;;4952397;28;20182;-72
2023/10/17 14:15:34;;;;;;;9.73;5.13;;;;;;;;;;4948504;28;20181;-71
2023/10/17 14:18:09;;;;;;;6.27;4.60;;;;;;;;;;4942290;29;20195;-71
2023/10/17 14:20:40;;;;;;;5.27;4.67;;;;;;;;;;4934347;29;20195;-72
2023/10/17 14:23:08;;;;;;;6.07;4.37;;;;;;;;;;4950572;28;20188;-72
2023/10/17 14:28:17;;;;;;;14.50;7.07;;;;;;;;;;4949621;28;20261;-71
2023/10/17 14:30:43;;;;;;;8.53;5.77;;;;;;;;;;4942938;28;20201;-72
2023/10/17 14:33:09;;;;;;;8.33;5.70;;;;;;;;;;4948088;28;20185;-71
2023/10/17 14:35:36;;;;;;;6.77;5.67;;;;;;;;;;4949465;28;20177;-71
2023/10/17 14:38:02;;;;;;;8.10;6.03;;;;;;;;;;4928224;28;20201;-72
2023/10/17 14:40:29;;;;;;;7.23;5.03;;;;;;;;;;4951543;28;20195;-71
2023/10/17 14:42:54;;;;;;;6.33;5.23;;;;;;;;;;4934659;29;20181;-72
2023/10/17 14:45:22;;;;;;;6.23;5.10;;;;;;;;;;4950959;28;20280;-71
2023/10/17 14:47:48;;;;;;;7.27;4.80;;;;;;;;;;4936739;29;20208;-71
2023/10/17 14:50:13;;;;;;;6.97;5.13;;;;;;;;;;4951509;28;20182;-71
2023/10/17 14:52:38;;;;;;;9.20;5.40;;;;;;;;;;4953057;28;20187;-72
2023/10/17 14:55:05;;;;;;;7.97;5.27;;;;;;;;;;4949994;28;20196;-71
2023/10/17 14:57:30;;;;;;;10.30;6.10;;;;;;;;;;4950470;28;20213;-71
2023/10/17 14:59:55;;;;;;;6.07;5.43;;;;;;;;;;4948534;28;20178;-71
2023/10/17 15:02:21;;;;;;;18.03;7.00;;;;;;;;;;4952328;28;20190;-71
2023/10/17 15:04:46;;;;;;;7.17;5.83;;;;;;;;;;4936105;28;20183;-71
2023/10/17 15:07:12;;;;;;;7.57;6.60;;;;;;;;;;4948858;28;20207;-72
2023/10/17 15:09:37;;;;;;;8.37;6.50;;;;;;;;;;4951844;28;20219;-71
2023/10/17 15:12:03;;;;;;;8.37;6.30;;;;;;;;;;4935621;28;20211;-72
2023/10/17 15:14:29;;;;;;;8.97;5.87;;;;;;;;;;4952557;28;20252;-71
2023/10/17 15:16:54;;;;;;;8.53;6.50;;;;;;;;;;4949577;28;20179;-71
2023/10/17 15:19:20;;;;;;;7.57;5.80;;;;;;;;;;4944760;28;20187;-71
2023/10/17 15:21:45;;;;;;;7.40;6.60;;;;;;;;;;4948795;28;20207;-71
2023/10/17 15:24:12;;;;;;;9.17;7.00;;;;;;;;;;4946517;28;20179;-70
2023/10/17 15:26:38;;;;;;;9.77;6.97;;;;;;;;;;4952528;28;20188;-71
2023/10/17 15:29:03;;;;;;;7.67;6.50;;;;;;;;;;4931786;28;20194;-71
2023/10/17 15:31:28;;;;;;;9.33;7.13;;;;;;;;;;4951200;28;20195;-71
2023/10/17 15:33:55;;;;;;;9.03;5.60;;;;;;;;;;4951494;28;20209;-71
2023/10/17 15:36:20;;;;;;;6.10;5.33;;;;;;;;;;4948269;28;20190;-71
2023/10/17 15:38:46;;;;;;;7.50;6.73;;;;;;;;;;4950316;28;20175;-72
2023/10/17 15:41:15;;;;;;;6.07;5.50;;;;;;;;;;4933663;28;20187;-71
2023/10/17 15:43:41;;;;;;;6.37;5.23;;;;;;;;;;4945673;28;20196;-72
2023/10/17 15:46:06;;;;;;;6.87;5.97;;;;;;;;;;4936004;28;20194;-71
2023/10/17 15:48:31;;;;;;;8.20;5.53;;;;;;;;;;4951386;28;20184;-72
2023/10/17 15:50:57;;;;;;;7.17;5.50;;;;;;;;;;4956196;28;20190;-71
2023/10/17 15:53:26;;;;;;;6.97;5.40;;;;;;;;;;4938848;28;20211;-72
2023/10/17 15:55:53;;;;;;;9.27;6.53;;;;;;;;;;4933009;29;20188;-71
2023/10/17 15:58:19;;;;;;;9.33;5.87;;;;;;;;;;4932137;28;20180;-72
2023/10/17 16:00:46;;;;;;;9.43;6.90;;;;;;;;;;4932263;28;20194;-71
2023/10/17 16:03:11;;;;;;;9.70;6.90;;;;;;;;;;4952442;28;20270;-71
2023/10/17 16:05:36;;;;;;;8.93;6.60;;;;;;;;;;4956555;28;20286;-71
2023/10/17 16:08:05;;;;;;;7.70;6.30;;;;;;;;;;4950779;28;20276;-71
2023/10/17 16:10:30;;;;;;;7.47;6.67;;;;;;;;;;4954179;28;20269;-71
2023/10/17 16:12:56;;;;;;;9.03;5.93;;;;;;;;;;4953612;28;20213;-71
2023/10/17 16:15:21;;;;;;;10.17;8.03;;;;;;;;;;4936028;28;20235;-71
2023/10/17 16:17:46;;;;;;;8.07;7.17;;;;;;;;;;4957736;28;20174;-71
2023/10/17 16:20:13;;;;;;;8.47;7.57;;;;;;;;;;4949178;28;20234;-71
2023/10/17 16:22:38;;;;;;;7.23;6.30;;;;;;;;;;4937061;29;20198;-71
2023/10/17 16:25:06;;;;;;;6.77;6.07;;;;;;;;;;4936827;29;20189;-72
2023/10/17 16:27:35;;;;;;;16.00;7.40;;;;;;;;;;4940600;28;20204;-71
2023/10/17 16:30:05;;;;;;;9.07;7.43;;;;;;;;;;4950938;28;20174;-71
2023/10/17 16:32:31;;;;;;;7.17;5.70;;;;;;;;;;4939836;28;20257;-71
2023/10/17 16:34:56;;;;;;;6.90;6.20;;;;;;;;;;4945124;28;20213;-71
2023/10/17 16:37:22;;;;;;;7.07;5.93;;;;;;;;;;4936967;28;20179;-71
2023/10/17 16:39:47;;;;;;;8.27;6.23;;;;;;;;;;4956281;28;20183;-71
2023/10/17 16:42:12;;;;;;;11.23;6.20;;;;;;;;;;4950579;28;20183;-72
2023/10/17 16:44:38;;;;;;;7.37;6.10;;;;;;;;;;4942256;28;20193;-71
2023/10/17 16:47:03;;;;;;;6.70;5.93;;;;;;;;;;4936760;29;20217;-71
2023/10/17 16:49:30;;;;;;;8.77;7.30;;;;;;;;;;4955476;28;20261;-72
2023/10/17 16:51:55;;;;;;;8.80;6.67;;;;;;;;;;4957638;28;20210;-71
2023/10/17 16:54:22;;;;;;;8.63;6.70;;;;;;;;;;4954153;28;20243;-72